Time;durP1;ratioP1;P1;durP2;ratioP2;P2;SDS_P1;SDS_P2;PMS_P1;PMS_P2;Temp;Humidity;BMP_temperature;BMP_pressure;BME280_temperature;BME280_humidity;BME280_pressure;Samples;Min_cycle;Max_cycle;Signal;HPM_P1;HPM_P2
2022/09/18 00:02:24;;;;;;;1.87;0.23;;;10.50;99.90;;;;;;5029812;28;20204;-49
2022/09/18 00:04:52;;;;;;;0.30;0.30;;;10.50;99.90;;;;;;5031438;28;20208;-48
2022/09/18 00:07:20;;;;;;;0.30;0.30;;;10.50;99.90;;;;;;5030268;28;20737;-49
2022/09/18 00:09:47;;;;;;;0.20;0.20;;;10.50;99.90;;;;;;5029364;28;20235;-48
2022/09/18 00:12:14;;;;;;;0.40;0.40;;;10.60;99.90;;;;;;5029688;28;20308;-48
2022/09/18 00:14:41;;;;;;;0.57;0.30;;;10.50;99.90;;;;;;5031194;28;20205;-49
2022/09/18 00:17:10;;;;;;;0.40;0.30;;;10.50;99.90;;;;;;5031800;28;20213;-48
2022/09/18 00:19:37;;;;;;;0.60;0.20;;;10.50;99.90;;;;;;5021569;28;20216;-48
2022/09/18 00:22:04;;;;;;;0.30;0.30;;;10.50;99.90;;;;;;5030617;28;20627;-48
2022/09/18 00:24:31;;;;;;;0.50;0.50;;;10.50;99.90;;;;;;5033049;28;20209;-48
2022/09/18 00:26:58;;;;;;;1.03;0.67;;;10.40;99.90;;;;;;5034332;28;20224;-50
2022/09/18 00:29:25;;;;;;;0.40;0.40;;;10.50;99.90;;;;;;5035313;28;20570;-48
2022/09/18 00:31:52;;;;;;;0.83;0.50;;;10.40;99.90;;;;;;5034315;28;20220;-48
2022/09/18 00:34:22;;;;;;;0.67;0.57;;;10.40;99.90;;;;;;5035216;28;20744;-48
2022/09/18 00:36:49;;;;;;;1.17;0.40;;;10.40;99.90;;;;;;5032726;28;20212;-48
2022/09/18 00:39:16;;;;;;;0.57;0.57;;;10.30;99.90;;;;;;5028928;28;20229;-48
2022/09/18 00:41:44;;;;;;;0.40;0.30;;;10.40;99.90;;;;;;5032948;28;20205;-49
2022/09/18 00:44:35;;;;;;;0.40;0.40;;;10.40;99.90;;;;;;5030969;28;20572;-48
2022/09/18 00:47:16;;;;;;;0.30;0.30;;;10.30;99.90;;;;;;5031116;28;20217;-49
2022/09/18 00:49:49;;;;;;;1.63;0.60;;;10.30;99.90;;;;;;5032335;28;20220;-49
2022/09/18 00:52:18;;;;;;;1.70;0.40;;;10.20;99.90;;;;;;5029164;28;20219;-48
2022/09/18 00:54:48;;;;;;;1.20;0.40;;;10.20;99.90;;;;;;5034558;28;20240;-47
2022/09/18 00:57:19;;;;;;;1.17;0.40;;;10.20;99.90;;;;;;5025517;28;20244;-48
2022/09/18 00:59:51;;;;;;;0.30;0.30;;;10.20;99.90;;;;;;5034973;28;20201;-49
2022/09/18 01:02:18;;;;;;;0.40;0.40;;;10.20;99.90;;;;;;5034852;28;20250;-48
2022/09/18 01:04:48;;;;;;;0.40;0.40;;;10.20;99.90;;;;;;5030889;28;20634;-48
2022/09/18 01:07:38;;;;;;;0.83;0.40;;;10.20;99.90;;;;;;5034757;28;20222;-48
2022/09/18 01:10:18;;;;;;;0.50;0.50;;;10.20;99.90;;;;;;5023547;28;20203;-49
2022/09/18 01:12:53;;;;;;;0.50;0.50;;;10.20;99.90;;;;;;5022407;28;20258;-48
2022/09/18 01:15:30;;;;;;;0.40;0.40;;;10.20;99.90;;;;;;5024800;28;20208;-48
2022/09/18 01:18:06;;;;;;;0.73;0.37;;;10.20;99.90;;;;;;5022275;28;20228;-48
2022/09/18 01:20:54;;;;;;;0.30;0.30;;;10.30;99.90;;;;;;5029156;28;20213;-48
2022/09/18 01:23:43;;;;;;;1.03;0.50;;;10.30;99.90;;;;;;5033310;28;20207;-48
2022/09/18 01:26:24;;;;;;;0.60;0.40;;;10.30;99.90;;;;;;5014895;28;20214;-48
2022/09/18 01:28:58;;;;;;;0.40;0.40;;;10.30;99.90;;;;;;5030502;28;20245;-49
2022/09/18 01:31:30;;;;;;;1.23;0.60;;;10.30;99.90;;;;;;5034034;28;20209;-48
2022/09/18 01:34:03;;;;;;;1.30;0.40;;;10.30;99.90;;;;;;5032300;28;20745;-48
2022/09/18 01:36:36;;;;;;;1.10;0.60;;;10.30;99.90;;;;;;5020936;28;20208;-48
2022/09/18 01:39:11;;;;;;;0.63;0.40;;;10.30;99.90;;;;;;5021983;28;20232;-48
2022/09/18 01:41:40;;;;;;;0.70;0.60;;;10.30;99.90;;;;;;5030417;28;20722;-48
2022/09/18 01:44:15;;;;;;;0.60;0.60;;;10.30;99.90;;;;;;5030957;28;20576;-47
2022/09/18 01:46:44;;;;;;;1.13;1.03;;;10.30;99.90;;;;;;5033029;28;20602;-47
2022/09/18 01:49:14;;;;;;;0.70;0.70;;;10.20;99.90;;;;;;5030217;28;20744;-48
2022/09/18 01:51:46;;;;;;;1.03;0.77;;;10.20;99.90;;;;;;5032885;28;20201;-49
2022/09/18 01:54:18;;;;;;;0.97;0.97;;;10.20;99.90;;;;;;5033825;28;20209;-48
2022/09/18 01:56:50;;;;;;;0.90;0.90;;;10.20;99.90;;;;;;5033989;28;20202;-50
2022/09/18 01:59:24;;;;;;;0.80;0.80;;;10.10;99.90;;;;;;5031167;28;20717;-48
2022/09/18 02:01:53;;;;;;;0.63;0.63;;;10.10;99.90;;;;;;5031413;28;20202;-49
2022/09/18 02:04:27;;;;;;;0.83;0.70;;;10.20;99.90;;;;;;5025567;28;20209;-48
2022/09/18 02:07:05;;;;;;;0.60;0.60;;;10.20;99.90;;;;;;5032330;28;20209;-48
2022/09/18 02:09:32;;;;;;;0.50;0.50;;;10.20;99.90;;;;;;5033811;28;20201;-48
2022/09/18 02:12:04;;;;;;;3.50;1.67;;;10.20;99.90;;;;;;5030878;28;20225;-48
2022/09/18 02:14:37;;;;;;;1.57;0.90;;;10.20;99.90;;;;;;5033483;28;20202;-49
2022/09/18 02:17:08;;;;;;;1.63;0.80;;;10.20;99.90;;;;;;5016682;28;20209;-48
2022/09/18 02:19:38;;;;;;;1.27;0.83;;;10.20;99.90;;;;;;5023619;28;20209;-47
2022/09/18 02:22:11;;;;;;;0.93;0.80;;;10.20;99.90;;;;;;5026179;28;20195;-48
2022/09/18 02:24:43;;;;;;;1.77;0.80;;;10.20;99.90;;;;;;5031332;28;20670;-48
2022/09/18 02:27:12;;;;;;;0.67;0.67;;;10.10;99.90;;;;;;5036315;28;20212;-48
2022/09/18 02:29:42;;;;;;;0.60;0.60;;;10.20;99.90;;;;;;5031185;28;20216;-48
2022/09/18 02:32:09;;;;;;;0.87;0.60;;;10.20;99.90;;;;;;5029492;28;20206;-49
2022/09/18 02:34:37;;;;;;;0.73;0.73;;;10.20;99.90;;;;;;5028504;28;20219;-47
2022/09/18 02:37:19;;;;;;;0.40;0.40;;;10.20;99.90;;;;;;5033191;28;20191;-48
2022/09/18 02:40:00;;;;;;;0.70;0.50;;;10.20;99.90;;;;;;5030621;28;20200;-48
2022/09/18 02:42:38;;;;;;;1.17;0.77;;;10.20;99.90;;;;;;5033119;28;20562;-48
2022/09/18 02:45:17;;;;;;;1.67;0.80;;;10.20;99.90;;;;;;5022211;28;20791;-49
2022/09/18 02:47:59;;;;;;;1.10;0.50;;;10.20;99.90;;;;;;5037787;28;20226;-48
2022/09/18 02:50:32;;;;;;;0.40;0.40;;;10.20;99.90;;;;;;5033113;28;20553;-48
2022/09/18 02:53:06;;;;;;;0.73;0.60;;;10.20;99.90;;;;;;5032869;28;20601;-47
2022/09/18 02:55:42;;;;;;;0.57;0.53;;;10.20;99.90;;;;;;5033288;28;20205;-48
2022/09/18 02:58:15;;;;;;;0.90;0.90;;;10.20;99.90;;;;;;5031840;28;20224;-48
2022/09/18 03:00:45;;;;;;;1.43;0.60;;;10.20;99.90;;;;;;5030998;28;20216;-48
2022/09/18 03:03:14;;;;;;;0.70;0.70;;;10.20;99.90;;;;;;5025811;28;20249;-49
2022/09/18 03:05:41;;;;;;;1.13;0.83;;;10.20;99.90;;;;;;5032787;28;20617;-49
2022/09/18 03:08:08;;;;;;;0.53;0.53;;;10.10;99.90;;;;;;5032890;28;20229;-48
2022/09/18 03:10:36;;;;;;;2.50;0.80;;;10.20;99.90;;;;;;5032792;28;20204;-49
2022/09/18 03:13:03;;;;;;;1.70;0.40;;;10.20;99.90;;;;;;5031298;28;20222;-48
2022/09/18 03:15:30;;;;;;;0.67;0.67;;;10.20;99.90;;;;;;5029775;28;20209;-48
2022/09/18 03:17:59;;;;;;;0.50;0.50;;;10.10;99.90;;;;;;5032175;28;20785;-49
2022/09/18 03:20:26;;;;;;;0.57;0.57;;;10.10;99.90;;;;;;5032613;28;20201;-48
2022/09/18 03:22:53;;;;;;;2.20;0.50;;;10.10;99.90;;;;;;5032623;28;20202;-48
2022/09/18 03:25:20;;;;;;;1.43;0.87;;;10.10;99.90;;;;;;5030554;28;20200;-48
2022/09/18 03:27:47;;;;;;;1.23;0.50;;;10.10;99.90;;;;;;5029730;28;20694;-48
2022/09/18 03:30:15;;;;;;;2.90;0.80;;;10.10;99.90;;;;;;5031374;28;20879;-47
2022/09/18 03:32:42;;;;;;;1.33;0.67;;;10.10;99.90;;;;;;5030997;28;20225;-48
2022/09/18 03:35:11;;;;;;;0.47;0.47;;;10.10;99.90;;;;;;5026885;28;20208;-48
2022/09/18 03:37:38;;;;;;;1.60;1.20;;;10.10;99.90;;;;;;5012563;28;20229;-48
2022/09/18 03:40:06;;;;;;;1.70;0.97;;;10.10;99.90;;;;;;5012574;28;20625;-48
2022/09/18 03:42:33;;;;;;;1.47;1.10;;;10.10;99.90;;;;;;5017804;28;20675;-47
2022/09/18 03:45:00;;;;;;;0.50;0.50;;;10.10;99.90;;;;;;5029597;28;20201;-48
2022/09/18 03:47:27;;;;;;;0.47;0.47;;;10.00;99.90;;;;;;5032015;28;20224;-48
2022/09/18 03:49:54;;;;;;;1.53;0.53;;;10.10;99.90;;;;;;5032091;28;20199;-48
2022/09/18 03:52:22;;;;;;;1.37;0.60;;;10.00;99.90;;;;;;5032120;28;20217;-48
2022/09/18 03:54:49;;;;;;;2.50;0.47;;;10.10;99.90;;;;;;5031936;28;20207;-47
2022/09/18 03:57:17;;;;;;;0.50;0.50;;;10.10;99.90;;;;;;5022000;28;20224;-48
2022/09/18 03:59:44;;;;;;;1.57;0.50;;;10.10;99.90;;;;;;5029916;28;20202;-48
2022/09/18 04:02:11;;;;;;;0.57;0.40;;;10.00;99.90;;;;;;5031913;28;20208;-48
2022/09/18 04:04:38;;;;;;;1.00;0.60;;;10.10;99.90;;;;;;5031573;28;20593;-48
2022/09/18 04:07:07;;;;;;;0.70;0.50;;;10.00;99.90;;;;;;5031704;28;20213;-47
2022/09/18 04:09:35;;;;;;;2.20;0.60;;;10.00;99.90;;;;;;5022031;28;20749;-48
2022/09/18 04:12:02;;;;;;;0.87;0.47;;;10.00;99.90;;;;;;5030455;28;20197;-48
2022/09/18 04:14:29;;;;;;;0.47;0.40;;;10.10;99.90;;;;;;5028962;28;20743;-47
2022/09/18 04:16:56;;;;;;;1.23;0.40;;;10.10;99.90;;;;;;5030573;28;20704;-49
2022/09/18 04:19:23;;;;;;;0.57;0.53;;;10.10;99.90;;;;;;5030611;28;20205;-49
2022/09/18 04:21:50;;;;;;;1.63;0.53;;;10.10;99.90;;;;;;5031569;28;20204;-48
2022/09/18 04:24:17;;;;;;;0.80;0.20;;;10.20;99.90;;;;;;5030497;28;20199;-49
2022/09/18 04:26:46;;;;;;;0.40;0.40;;;10.20;99.90;;;;;;5023312;28;20195;-48
2022/09/18 04:29:13;;;;;;;0.90;0.27;;;10.20;99.90;;;;;;5029711;28;20569;-48
2022/09/18 04:31:40;;;;;;;1.50;0.33;;;10.20;99.90;;;;;;5031324;28;20205;-48
2022/09/18 04:34:07;;;;;;;0.20;0.20;;;10.20;99.90;;;;;;5031152;28;20240;-47
2022/09/18 04:36:34;;;;;;;1.13;0.40;;;10.20;99.90;;;;;;5031740;28;20251;-49
2022/09/18 04:39:01;;;;;;;0.60;0.30;;;10.20;99.90;;;;;;5029467;28;20251;-48
2022/09/18 04:41:28;;;;;;;0.30;0.30;;;10.20;99.90;;;;;;5031326;28;20202;-47
2022/09/18 04:43:57;;;;;;;0.50;0.40;;;10.20;99.90;;;;;;5027857;28;20205;-47
2022/09/18 04:46:24;;;;;;;3.13;0.40;;;10.20;99.90;;;;;;5031411;28;20204;-49
2022/09/18 04:48:52;;;;;;;0.70;0.40;;;10.30;99.90;;;;;;5026656;28;20222;-48
2022/09/18 04:51:19;;;;;;;0.40;0.40;;;10.20;99.90;;;;;;5025517;28;20579;-48
2022/09/18 04:53:46;;;;;;;1.80;0.60;;;10.20;99.90;;;;;;5021606;28;20225;-48
2022/09/18 04:56:13;;;;;;;0.40;0.40;;;10.30;99.90;;;;;;5031327;28;20228;-48
2022/09/18 04:58:40;;;;;;;0.30;0.30;;;10.30;99.90;;;;;;5027859;28;20224;-48
2022/09/18 05:01:09;;;;;;;0.73;0.40;;;10.30;99.90;;;;;;5031078;28;20200;-48
2022/09/18 05:03:36;;;;;;;1.37;0.50;;;10.20;99.90;;;;;;5021941;28;20201;-49
2022/09/18 05:06:03;;;;;;;0.90;0.50;;;10.10;99.90;;;;;;5019795;28;20802;-48
2022/09/18 05:08:33;;;;;;;0.63;0.63;;;10.10;99.90;;;;;;5029962;28;20232;-48
2022/09/18 05:11:01;;;;;;;3.43;1.20;;;10.10;99.90;;;;;;5032448;28;20670;-47
2022/09/18 05:13:28;;;;;;;0.80;0.80;;;10.10;99.90;;;;;;5034522;28;20220;-49
2022/09/18 05:15:55;;;;;;;0.70;0.60;;;10.20;99.90;;;;;;5024692;28;20667;-47
2022/09/18 05:18:27;;;;;;;1.37;0.80;;;10.10;99.90;;;;;;5032288;28;20252;-47
2022/09/18 05:20:55;;;;;;;1.03;0.80;;;10.10;99.90;;;;;;5035905;28;20602;-48
2022/09/18 05:23:24;;;;;;;0.60;0.53;;;10.10;99.90;;;;;;5028657;28;20226;-47
2022/09/18 05:25:51;;;;;;;0.70;0.70;;;10.00;99.90;;;;;;5034550;28;20297;-48
2022/09/18 05:28:19;;;;;;;2.60;1.70;;;10.10;99.90;;;;;;5034172;28;20641;-47
2022/09/18 05:30:46;;;;;;;1.00;0.97;;;10.00;99.90;;;;;;5024358;28;20633;-48
2022/09/18 05:33:13;;;;;;;0.97;0.97;;;10.00;99.90;;;;;;5033527;28;20885;-48
2022/09/18 05:35:42;;;;;;;0.80;0.70;;;10.00;99.90;;;;;;5025490;28;20213;-49
2022/09/18 05:38:10;;;;;;;0.60;0.60;;;10.00;99.90;;;;;;5033986;28;20272;-47
2022/09/18 05:40:38;;;;;;;0.67;0.50;;;10.10;99.90;;;;;;5034055;28;20686;-48
2022/09/18 05:43:06;;;;;;;0.50;0.50;;;10.10;99.90;;;;;;5032520;28;20198;-48
2022/09/18 05:45:34;;;;;;;1.30;0.43;;;10.10;99.90;;;;;;5030274;28;20240;-48
2022/09/18 05:48:04;;;;;;;2.67;1.07;;;10.10;99.90;;;;;;5034001;28;20224;-48
2022/09/18 05:50:32;;;;;;;0.50;0.50;;;10.10;99.90;;;;;;5024858;28;20258;-47
2022/09/18 05:53:02;;;;;;;0.93;0.73;;;10.20;99.90;;;;;;5030117;28;20201;-48
2022/09/18 05:55:30;;;;;;;0.77;0.60;;;10.20;99.90;;;;;;5028872;28;20220;-49
2022/09/18 05:57:58;;;;;;;0.77;0.77;;;10.10;99.90;;;;;;5030968;28;20221;-48
2022/09/18 06:00:27;;;;;;;2.43;1.20;;;10.10;99.90;;;;;;5033559;28;20204;-48
2022/09/18 06:02:56;;;;;;;1.73;0.87;;;10.10;99.90;;;;;;5037411;28;20213;-48
2022/09/18 06:05:24;;;;;;;1.97;0.70;;;10.10;99.90;;;;;;5041158;28;20197;-48
2022/09/18 06:07:51;;;;;;;0.70;0.60;;;10.20;99.90;;;;;;5025901;28;20231;-47
2022/09/18 06:10:22;;;;;;;1.63;0.80;;;10.20;99.90;;;;;;5028584;28;20239;-48
2022/09/18 06:12:49;;;;;;;0.83;0.60;;;10.30;99.90;;;;;;5033201;28;20208;-47
2022/09/18 06:15:17;;;;;;;2.03;0.70;;;10.30;99.90;;;;;;5033375;28;20286;-49
2022/09/18 06:17:51;;;;;;;0.50;0.50;;;10.30;99.90;;;;;;5030825;28;20312;-47
2022/09/18 06:20:18;;;;;;;1.20;0.50;;;10.30;99.90;;;;;;5032722;28;20212;-48
2022/09/18 06:22:45;;;;;;;0.67;0.67;;;10.40;99.90;;;;;;5032824;28;20197;-48
2022/09/18 06:25:15;;;;;;;0.47;0.40;;;10.40;99.90;;;;;;5032258;28;20851;-48
2022/09/18 06:27:44;;;;;;;0.73;0.50;;;10.40;99.90;;;;;;5032690;28;20220;-47
2022/09/18 06:30:13;;;;;;;1.23;0.83;;;10.50;99.90;;;;;;5031529;28;20205;-48
2022/09/18 06:32:40;;;;;;;1.60;0.83;;;10.50;99.90;;;;;;5026842;28;20208;-49
2022/09/18 06:35:08;;;;;;;0.80;0.80;;;10.50;99.90;;;;;;5029395;28;20224;-48
2022/09/18 06:37:36;;;;;;;0.50;0.50;;;10.50;99.90;;;;;;5034334;28;20231;-48
2022/09/18 06:40:03;;;;;;;2.33;1.17;;;10.60;99.90;;;;;;5030579;28;20209;-48
2022/09/18 06:42:30;;;;;;;1.20;0.57;;;10.60;99.90;;;;;;5027809;28;20198;-47
2022/09/18 06:44:59;;;;;;;0.77;0.77;;;10.70;99.90;;;;;;5032442;28;20201;-47
2022/09/18 06:47:26;;;;;;;1.50;0.60;;;10.80;99.90;;;;;;5032546;28;20250;-48
2022/09/18 06:49:54;;;;;;;0.97;0.97;;;10.90;99.90;;;;;;5032970;28;20212;-47
2022/09/18 06:52:21;;;;;;;3.47;1.17;;;11.10;99.90;;;;;;5028741;28;20201;-48
2022/09/18 06:54:48;;;;;;;1.27;0.77;;;11.20;99.90;;;;;;5032226;28;20255;-48
2022/09/18 06:57:15;;;;;;;1.37;0.60;;;11.30;99.90;;;;;;5030434;28;20228;-48
2022/09/18 06:59:42;;;;;;;1.63;0.70;;;11.40;99.90;;;;;;5031964;28;20207;-49
2022/09/18 07:02:13;;;;;;;0.70;0.50;;;11.50;99.90;;;;;;5029943;28;20279;-48
2022/09/18 07:04:40;;;;;;;0.63;0.57;;;11.70;99.90;;;;;;5031549;28;20204;-48
2022/09/18 07:07:08;;;;;;;0.77;0.67;;;11.80;99.90;;;;;;5033116;28;20209;-48
2022/09/18 07:09:35;;;;;;;0.63;0.63;;;11.80;99.90;;;;;;5032738;28;20209;-48
2022/09/18 07:12:02;;;;;;;0.80;0.80;;;11.90;99.90;;;;;;5032177;28;20209;-48
2022/09/18 07:14:29;;;;;;;0.30;0.30;;;12.00;99.90;;;;;;5030713;28;20702;-48
2022/09/18 07:16:56;;;;;;;1.03;0.67;;;12.10;99.90;;;;;;5031959;28;20300;-49
2022/09/18 07:19:25;;;;;;;0.83;0.50;;;12.10;99.90;;;;;;5031770;28;20762;-48
2022/09/18 07:21:52;;;;;;;0.50;0.50;;;12.10;99.90;;;;;;5032102;28;20746;-48
2022/09/18 07:24:19;;;;;;;1.43;0.70;;;12.00;99.90;;;;;;5044795;28;20204;-48
2022/09/18 07:26:46;;;;;;;1.57;0.80;;;11.90;99.90;;;;;;5028503;28;20259;-48
2022/09/18 07:29:13;;;;;;;1.57;0.50;;;11.90;99.90;;;;;;5025285;28;20213;-48
2022/09/18 07:31:40;;;;;;;1.00;0.50;;;11.90;99.90;;;;;;5032031;28;20281;-48
2022/09/18 07:34:08;;;;;;;0.50;0.50;;;11.80;99.90;;;;;;5030856;28;20232;-48
2022/09/18 07:36:36;;;;;;;0.40;0.40;;;11.80;99.90;;;;;;5028447;28;20200;-48
2022/09/18 07:39:04;;;;;;;1.40;0.80;;;11.80;99.90;;;;;;5030851;28;20770;-49
2022/09/18 07:41:31;;;;;;;0.70;0.70;;;11.80;99.90;;;;;;5032038;28;20237;-48
2022/09/18 07:43:58;;;;;;;1.00;1.00;;;11.90;99.90;;;;;;5031624;28;20198;-48
2022/09/18 07:46:25;;;;;;;2.40;1.27;;;11.90;99.90;;;;;;5031808;28;20208;-48
2022/09/18 07:48:52;;;;;;;1.60;0.63;;;11.80;99.90;;;;;;5031647;28;20722;-48
2022/09/18 07:51:19;;;;;;;1.13;0.50;;;11.80;99.90;;;;;;5025170;28;20209;-48
2022/09/18 07:53:49;;;;;;;1.33;0.60;;;11.70;99.90;;;;;;5029314;28;20197;-48
2022/09/18 07:56:16;;;;;;;0.83;0.43;;;11.80;99.90;;;;;;5032027;28;20205;-48
2022/09/18 07:58:43;;;;;;;0.53;0.53;;;11.90;99.90;;;;;;5031718;28;20233;-48
2022/09/18 08:01:10;;;;;;;0.90;0.70;;;12.00;99.90;;;;;;5031739;28;20264;-48
2022/09/18 08:03:37;;;;;;;2.23;0.60;;;12.10;99.90;;;;;;5031523;28;20640;-48
2022/09/18 08:06:05;;;;;;;0.33;0.33;;;12.10;99.90;;;;;;5029846;28;20657;-47
2022/09/18 08:08:34;;;;;;;1.40;0.40;;;12.30;99.90;;;;;;5028834;28;20741;-49
2022/09/18 08:11:03;;;;;;;0.67;0.60;;;12.50;99.90;;;;;;5031623;28;20585;-48
2022/09/18 08:13:30;;;;;;;2.73;0.47;;;12.30;99.90;;;;;;5031394;28;20205;-49
2022/09/18 08:15:58;;;;;;;0.63;0.57;;;12.30;99.90;;;;;;5031574;28;20311;-48
2022/09/18 08:18:25;;;;;;;0.70;0.60;;;12.40;99.90;;;;;;5031357;28;20224;-50
2022/09/18 08:20:54;;;;;;;0.60;0.47;;;12.40;99.90;;;;;;5031732;28;20203;-50
2022/09/18 08:23:22;;;;;;;0.60;0.60;;;12.50;99.90;;;;;;5030379;28;20682;-48
2022/09/18 08:25:49;;;;;;;1.40;0.50;;;12.60;99.90;;;;;;5023392;28;20201;-49
2022/09/18 08:28:17;;;;;;;0.73;0.50;;;12.70;99.90;;;;;;5031567;28;20226;-47
2022/09/18 08:30:44;;;;;;;0.70;0.47;;;12.90;99.90;;;;;;5031426;28;20218;-48
2022/09/18 08:33:12;;;;;;;0.65;0.65;;;13.00;99.90;;;;;;5027892;28;20446;-48
2022/09/18 08:35:39;;;;;;;2.73;0.60;;;13.40;99.90;;;;;;5031161;28;20631;-49
2022/09/18 08:38:09;;;;;;;0.93;0.70;;;13.60;99.90;;;;;;5027713;28;20218;-48
2022/09/18 08:40:55;;;;;;;0.47;0.47;;;13.60;99.90;;;;;;5025990;28;20239;-49
2022/09/18 08:43:44;;;;;;;0.60;0.30;;;13.60;99.90;;;;;;5020752;28;20207;-48
2022/09/18 08:46:15;;;;;;;2.07;0.30;;;13.60;99.90;;;;;;5025773;28;20201;-48
2022/09/18 08:48:47;;;;;;;3.70;0.37;;;13.70;99.90;;;;;;5033409;28;20275;-50
2022/09/18 08:51:19;;;;;;;0.93;0.30;;;13.80;99.90;;;;;;5030260;28;20622;-48
2022/09/18 08:53:54;;;;;;;0.73;0.40;;;13.80;99.90;;;;;;5034398;28;20217;-49
2022/09/18 08:56:23;;;;;;;0.80;0.40;;;13.80;99.90;;;;;;5031530;28;20275;-48
2022/09/18 08:58:56;;;;;;;1.63;0.57;;;14.00;99.90;;;;;;5029440;28;20223;-47
2022/09/18 09:01:32;;;;;;;0.60;0.47;;;14.10;99.90;;;;;;5033132;28;20290;-48
2022/09/18 09:04:01;;;;;;;0.87;0.40;;;14.40;99.90;;;;;;5029003;28;20206;-48
2022/09/18 09:06:48;;;;;;;1.77;0.67;;;14.80;99.90;;;;;;5025481;28;20210;-49
2022/09/18 09:09:36;;;;;;;1.70;1.60;;;15.10;99.90;;;;;;5021252;28;20219;-49
2022/09/18 09:12:09;;;;;;;1.07;0.70;;;15.00;99.90;;;;;;5029729;28;20206;-48
2022/09/18 09:15:02;;;;;;;2.63;0.70;;;15.00;99.90;;;;;;5030634;28;20215;-48
2022/09/18 09:17:40;;;;;;;1.17;0.73;;;15.00;99.90;;;;;;5027641;28;20230;-48
2022/09/18 09:20:21;;;;;;;1.03;0.97;;;15.10;99.90;;;;;;5027211;28;20209;-49
2022/09/18 09:22:56;;;;;;;1.57;0.73;;;14.90;99.90;;;;;;5024835;28;20746;-48
2022/09/18 09:25:30;;;;;;;1.40;0.40;;;14.90;99.90;;;;;;5027865;28;20204;-48
2022/09/18 09:28:07;;;;;;;1.03;0.30;;;15.10;99.90;;;;;;5027203;28;20269;-48
2022/09/18 09:30:38;;;;;;;1.03;0.40;;;15.20;99.90;;;;;;5025823;28;20252;-48
2022/09/18 09:33:16;;;;;;;0.40;0.40;;;15.60;99.90;;;;;;5028843;28;20240;-48
2022/09/18 09:35:46;;;;;;;2.03;0.37;;;15.90;99.90;;;;;;5032433;28;20292;-48
2022/09/18 09:38:35;;;;;;;1.97;0.30;;;16.20;99.90;;;;;;5021129;28;20223;-48
2022/09/18 09:41:12;;;;;;;3.60;0.47;;;16.80;99.90;;;;;;5032617;28;20206;-47
2022/09/18 09:43:44;;;;;;;0.37;0.30;;;18.00;99.90;;;;;;5033346;28;20244;-47
2022/09/18 09:46:20;;;;;;;0.77;0.53;;;19.00;99.90;;;;;;5039249;28;20286;-48
2022/09/18 09:48:57;;;;;;;0.97;0.40;;;19.70;99.90;;;;;;5035660;28;20226;-48
2022/09/18 09:51:30;;;;;;;1.13;0.30;;;20.10;99.90;;;;;;5028410;28;20571;-48
2022/09/18 09:54:00;;;;;;;1.17;0.20;;;20.60;99.90;;;;;;5033499;28;20197;-48
2022/09/18 09:56:35;;;;;;;1.30;0.20;;;20.70;99.90;;;;;;5028407;28;20959;-48
2022/09/18 09:59:14;;;;;;;0.60;0.20;;;21.10;99.90;;;;;;5032065;28;20218;-47
2022/09/18 10:01:45;;;;;;;0.73;0.20;;;20.90;99.90;;;;;;5029645;28;20202;-48
2022/09/18 10:04:24;;;;;;;0.20;0.20;;;20.30;99.90;;;;;;5029674;28;20210;-47
2022/09/18 10:06:56;;;;;;;0.53;0.30;;;20.00;99.90;;;;;;5028083;28;20211;-47
2022/09/18 10:09:35;;;;;;;0.63;0.30;;;19.60;99.90;;;;;;5033155;28;20695;-50
2022/09/18 10:12:10;;;;;;;0.27;0.20;;;19.40;99.90;;;;;;5030970;28;20699;-48
2022/09/18 10:14:40;;;;;;;0.30;0.30;;;19.90;99.90;;;;;;5030577;28;20229;-47
2022/09/18 10:17:12;;;;;;;2.40;0.30;;;19.90;99.90;;;;;;5030197;28;20233;-48
2022/09/18 10:19:42;;;;;;;0.93;0.20;;;19.40;99.90;;;;;;5033388;28;20691;-47
2022/09/18 10:22:14;;;;;;;2.10;0.20;;;19.00;99.90;;;;;;5030013;28;20206;-47
2022/09/18 10:24:50;;;;;;;1.23;0.30;;;18.60;99.90;;;;;;5031877;28;20198;-48
2022/09/18 10:27:17;;;;;;;0.77;0.20;;;19.00;99.90;;;;;;5025340;28;20238;-49
2022/09/18 10:29:45;;;;;;;0.70;0.20;;;18.60;99.90;;;;;;5027569;28;20604;-47
2022/09/18 10:32:33;;;;;;;0.30;0.13;;;18.10;99.90;;;;;;5030433;28;20202;-49
2022/09/18 10:35:00;;;;;;;2.53;0.30;;;17.70;99.90;;;;;;5029207;28;20221;-48
2022/09/18 10:37:41;;;;;;;0.30;0.30;;;17.40;99.90;;;;;;5029846;28;20708;-47
2022/09/18 10:40:30;;;;;;;0.20;0.20;;;17.40;99.90;;;;;;5030394;28;20198;-50
2022/09/18 10:42:58;;;;;;;1.27;0.70;;;17.00;99.90;;;;;;5031487;28;20198;-48
2022/09/18 10:45:27;;;;;;;0.13;0.13;;;16.90;99.90;;;;;;5028380;28;20229;-48
2022/09/18 10:48:06;;;;;;;0.40;0.20;;;16.80;99.90;;;;;;5030593;28;20246;-47
2022/09/18 10:50:34;;;;;;;1.63;0.40;;;16.70;99.90;;;;;;5028214;28;20763;-48
2022/09/18 10:53:21;;;;;;;0.67;0.20;;;16.50;99.90;;;;;;5031346;28;20203;-48
2022/09/18 10:55:50;;;;;;;3.20;0.77;;;16.20;99.90;;;;;;5023980;28;20257;-47
2022/09/18 10:58:23;;;;;;;1.60;0.30;;;16.30;99.90;;;;;;5029386;28;20222;-48
2022/09/18 11:00:55;;;;;;;2.00;0.27;;;16.60;99.90;;;;;;5027922;28;20615;-47
2022/09/18 11:03:40;;;;;;;1.17;0.50;;;16.60;99.90;;;;;;5024469;28;20310;-50
2022/09/18 11:06:14;;;;;;;1.70;0.30;;;16.70;99.90;;;;;;5029967;28;20234;-50
2022/09/18 11:08:45;;;;;;;0.63;0.30;;;16.60;99.90;;;;;;5032591;28;20248;-50
2022/09/18 11:11:20;;;;;;;0.47;0.20;;;16.70;99.90;;;;;;5028660;28;20637;-48
2022/09/18 11:13:52;;;;;;;0.33;0.20;;;17.10;99.90;;;;;;5029353;28;20706;-48
2022/09/18 11:16:25;;;;;;;0.20;0.20;;;17.50;99.90;;;;;;5035642;28;20269;-47
2022/09/18 11:19:07;;;;;;;0.33;0.27;;;17.70;99.90;;;;;;5030266;28;20258;-48
2022/09/18 11:21:44;;;;;;;0.17;0.17;;;17.80;99.90;;;;;;5032100;28;20198;-50
2022/09/18 11:24:22;;;;;;;0.73;0.20;;;17.80;99.90;;;;;;5030221;28;20568;-49
2022/09/18 11:26:51;;;;;;;1.60;0.20;;;17.40;99.90;;;;;;5030435;28;20210;-48
2022/09/18 11:29:24;;;;;;;0.20;0.20;;;17.30;99.90;;;;;;5019576;28;22206;-47
2022/09/18 11:31:55;;;;;;;0.20;0.10;;;17.40;99.90;;;;;;5029503;28;20301;-48
2022/09/18 11:34:28;;;;;;;0.38;0.25;;;17.50;99.90;;;;;;5026530;28;20465;-48
2022/09/18 11:37:00;;;;;;;1.60;0.30;;;17.50;99.90;;;;;;5030594;28;20292;-47
2022/09/18 11:39:33;;;;;;;0.60;0.17;;;17.70;99.90;;;;;;5030151;28;20244;-47
2022/09/18 11:42:01;;;;;;;0.60;0.60;;;17.90;99.90;;;;;;5019749;28;20210;-47
2022/09/18 11:44:31;;;;;;;0.63;0.27;;;18.10;99.90;;;;;;5028811;28;20285;-48
2022/09/18 11:47:22;;;;;;;0.27;0.27;;;18.10;99.90;;;;;;5031053;28;20630;-48
2022/09/18 11:49:55;;;;;;;1.07;0.53;;;17.90;99.90;;;;;;5028687;28;20210;-48
2022/09/18 11:52:26;;;;;;;0.57;0.20;;;17.90;99.90;;;;;;5030374;28;20233;-47
2022/09/18 11:54:59;;;;;;;0.57;0.10;;;18.10;99.90;;;;;;5021849;28;20214;-47
2022/09/18 11:57:32;;;;;;;0.60;0.53;;;18.20;99.90;;;;;;5029143;28;20214;-48
2022/09/18 12:00:05;;;;;;;0.30;0.30;;;18.30;99.90;;;;;;5029250;28;20293;-47
2022/09/18 12:02:39;;;;;;;3.40;0.20;;;18.40;99.90;;;;;;5031325;28;20618;-47
2022/09/18 12:05:19;;;;;;;0.20;0.20;;;18.60;99.90;;;;;;5030417;28;20244;-48
2022/09/18 12:07:56;;;;;;;0.30;0.30;;;18.70;99.90;;;;;;5031224;28;20222;-49
2022/09/18 12:10:33;;;;;;;0.93;0.20;;;18.60;99.90;;;;;;5029923;28;20214;-47
2022/09/18 12:13:19;;;;;;;0.67;0.30;;;18.30;99.90;;;;;;5029242;28;20229;-46
2022/09/18 12:15:50;;;;;;;1.90;0.30;;;18.50;99.90;;;;;;5029298;28;20305;-46
2022/09/18 12:18:24;;;;;;;1.20;0.23;;;18.60;99.90;;;;;;5030330;28;20865;-48
2022/09/18 12:20:59;;;;;;;0.63;0.23;;;18.40;99.90;;;;;;5032292;28;20260;-48
2022/09/18 12:23:27;;;;;;;1.80;0.47;;;18.00;99.90;;;;;;5026178;28;20205;-48
2022/09/18 12:26:04;;;;;;;0.50;0.20;;;18.20;99.90;;;;;;5032824;28;20195;-47
2022/09/18 12:28:38;;;;;;;1.23;0.10;;;18.30;99.90;;;;;;5030106;28;20272;-48
2022/09/18 12:31:12;;;;;;;2.43;0.30;;;18.50;99.90;;;;;;5028496;28;20210;-48
2022/09/18 12:33:48;;;;;;;0.43;0.10;;;18.50;99.90;;;;;;5034027;28;20237;-51
2022/09/18 12:36:38;;;;;;;0.20;0.20;;;18.50;99.90;;;;;;5031935;28;20218;-47
2022/09/18 12:39:22;;;;;;;0.20;0.20;;;18.70;99.90;;;;;;5032583;28;20246;-50
2022/09/18 12:42:03;;;;;;;1.07;0.20;;;18.70;99.90;;;;;;5033353;28;20264;-49
2022/09/18 12:45:07;;;;;;;0.10;0.10;;;18.60;99.90;;;;;;5024709;28;20623;-50
2022/09/18 12:47:52;;;;;;;0.20;0.20;;;18.50;99.90;;;;;;5034894;28;20719;-50
2022/09/18 12:50:39;;;;;;;1.07;0.20;;;18.60;99.90;;;;;;5033995;28;20268;-50
2022/09/18 12:53:20;;;;;;;1.13;0.20;;;18.60;99.90;;;;;;5027356;28;20277;-50
2022/09/18 12:56:02;;;;;;;0.80;0.50;;;18.70;99.90;;;;;;5032458;28;20765;-49
2022/09/18 12:58:46;;;;;;;2.00;0.57;;;18.50;99.90;;;;;;5030327;28;20223;-49
2022/09/18 13:01:27;;;;;;;0.30;0.30;;;18.60;99.90;;;;;;5022698;28;20252;-49
2022/09/18 13:04:03;;;;;;;1.50;0.30;;;18.50;99.90;;;;;;5034635;28;20206;-50
2022/09/18 13:06:37;;;;;;;0.30;0.23;;;18.40;99.90;;;;;;5033721;28;20201;-51
2022/09/18 13:09:17;;;;;;;0.10;0.10;;;18.50;99.90;;;;;;5027288;28;20272;-50
2022/09/18 13:11:48;;;;;;;0.50;0.23;;;18.50;99.90;;;;;;5032462;28;20584;-50